AirNav   Air Wisconsin Up To $57,000 Bonus
 
 563 users online  

7NE5 Lierley Farms Airport
Paxton, Nebraska, USA

GOING TO PAXTON?


FAA INFORMATION EFFECTIVE 03 NOVEMBER 2022

Location

FAA Identifier: 7NE5
Lat/Long: 41-04-10.3400N 101-21-58.6650W
41-04.172333N 101-21.977750W
41.0695389,-101.3662958
(estimated)
Elevation: 3229 ft. / 984 m (estimated)
Variation: 09E (1985)
From city: 3 miles SW of PAXTON, NE
Time zone: UTC -7 (UTC -6 during Daylight Saving Time)
Zip code: 69155

Airport Operations

Airport use: Private use. Permission required prior to landing
Activation date: 10/1977
Control tower: no
ARTCC: DENVER CENTER
FSS: COLUMBUS FLIGHT SERVICE STATION
Attendance: UNATNDD
Wind indicator: yes
Segmented circle: no

Airport Communications

WX AWOS-3 at OGA (18 nm W): 121.275 (308-284-6573)

Nearby radio navigation aids

VOR radial/distance  VOR name  Freq  Var
SAEr092/18.8SEARLE VOR/DME110.2007E
LBFr262/28.0NORTH PLATTE VOR/DME117.4011E

 
NDB name  Hdg/Dist  Freq  Var  ID
GRANT045/20.435909EGGF --. --. ..-.

Airport Services

Runway Information

Runway 18/36

Dimensions: 4000 x 40 ft. / 1219 x 12 m
Surface: turf
RUNWAY 18  RUNWAY 36
Latitude: 41-04.501667N41-03.843000N
Longitude: 101-21.976000W101-21.979500W
Elevation: 3152.0 ft.3229.0 ft.
Traffic pattern: leftleft
Runway heading: 171 magnetic, 180 true351 magnetic, 360 true
Obstructions: 30 ft. plinenone

Airport Ownership and Management from official FAA records

Ownership: Privately-owned
Owner: FRED LIERLEY
1995 RD E 50
PAXTON, NE 69155
Phone 308-239-4524
Manager: FRED LIERLEY
1995 RD E 50
PAXTON, NE 69155
Phone 308-239-4524

Airport Operational Statistics

Aircraft based on the field: 1
Single engine airplanes: 1
    

Additional Remarks

RWY SLOPES DOWN 20' TO THE NORTH.
FOR CD CTC DENVER ARTCC AT 303-651-4257.

Instrument Procedures

There are no published instrument procedures at 7NE5.

Some nearby airports with instrument procedures:

KOGA - Searle Field Airport (18 nm W)
KGGF - Grant Municipal Airport (20 nm SW)
KLBF - North Platte Regional Airport/Lee Bird Field (31 nm E)
KIML - Imperial Municipal Airport (35 nm S)
47V - Curtis Municipal Airport (48 nm SE)
 
Loc | Ops | Rwys | IFR | FBO | Links
Com | Nav | Svcs | Stats | Notes

AirBoss

 
Area around 7NE5 (Lierley Farms Airport)
 
Road maps at: MapQuest Bing Google
 
Aerial photo
No photo
 
Sectional chart

 
Airport distance calculator
Flying to Lierley Farms Airport? Find the distance to fly.

From to 7NE5

Sunrise and sunset
Times for 27-Nov-2022
 Local
(UTC-7)
 Zulu
(UTC)
Morning civil twilight06:1813:18
Sunrise06:4813:48
Sunset16:1823:18
Evening civil twilight16:4923:49

Current date and time
Zulu (UTC)  27-Nov-2022 11:53:17
Local (UTC-7)  27-Nov-2022 04:53:17
 
METAR
KOGA 
19nm W 
271135Z AUTO 32003KT 10SM OVC100 00/M04 A2997 RMK AO2 T00021043
KGGF 
20nm SW 
271135Z AUTO 32008KT 10SM OVC095 M02/M06 A2996 RMK AO2
KLBF 
32nm E 
271053Z AUTO 32009KT 10SM OVC110 00/M06 A2993 RMK AO2 SLP141 T00001056
KIML 
35nm S 
271053Z AUTO 33008KT 10SM OVC090 M02/M07 A2996 RMK AO2 SLP156 T10171072 $
TAF
KLBF 
32nm E 
270520Z 2706/2806 35014G27KT P6SM BKN110 FM270900 34013G21KT P6SM BKN100 FM271200 33010KT P6SM BKN200 FM272200 20008KT P6SM SKC
NOTAMs
Click for the latest NOTAMs
NOTAMs are issued by the DoD/FAA and will open in a separate window not controlled by AirNav.

 

 
 

Would you like to see your business listed on this page?

 If your business provides an interesting product or service to pilots, flight crews, aircraft, or users of the Lierley Farms Airport, you should consider listing it here.  To start the listing process, click on the button below
 
Add a business
 

Other Pages about Lierley Farms Airport

Update a link
 
Copyright © AirNav, LLC. All rights reserved. Privacy Policy  Contact